Time;durP1;ratioP1;P1;durP2;ratioP2;P2;SDS_P1;SDS_P2;PMS_P1;PMS_P2;Temp;Humidity;BMP_temperature;BMP_pressure;BME280_temperature;BME280_humidity;BME280_pressure;Samples;Min_cycle;Max_cycle;Signal;HPM_P1;HPM_P2
2021/01/15 00:01:43;;;;;;;10.07;3.92;;;0.50;99.90;;;;;;5070077;28;20032;-60
2021/01/15 00:04:08;;;;;;;7.40;3.70;;;0.40;99.90;;;;;;5068597;28;20041;-61
2021/01/15 00:06:34;;;;;;;12.27;4.50;;;0.50;99.90;;;;;;5070781;28;20395;-61
2021/01/15 00:08:59;;;;;;;14.45;5.25;;;0.40;99.90;;;;;;5067903;28;20024;-60
2021/01/15 00:11:30;;;;;;;8.55;3.80;;;0.40;99.90;;;;;;5066464;28;20351;-60
2021/01/15 00:13:57;;;;;;;7.97;3.78;;;0.40;99.90;;;;;;5090453;23;20725;-65
2021/01/15 00:16:30;;;;;;;10.68;4.00;;;0.40;99.90;;;;;;5073507;28;20488;-67
2021/01/15 00:18:58;;;;;;;5.57;3.20;;;0.40;99.90;;;;;;5079258;28;20109;-66
2021/01/15 00:21:34;;;;;;;11.48;4.13;;;0.30;99.90;;;;;;5077475;28;20025;-67
2021/01/15 00:24:04;;;;;;;8.70;4.22;;;0.30;99.90;;;;;;5071642;28;20032;-65
2021/01/15 00:26:31;;;;;;;7.50;3.33;;;0.30;99.90;;;;;;5067966;28;20169;-67
2021/01/15 00:28:57;;;;;;;14.48;3.47;;;0.30;99.90;;;;;;5070128;28;20025;-67
2021/01/15 00:31:33;;;;;;;9.02;3.55;;;0.30;99.90;;;;;;5068702;28;20045;-67
2021/01/15 00:33:59;;;;;;;7.88;3.20;;;0.30;99.90;;;;;;5068464;28;20504;-67
2021/01/15 00:36:25;;;;;;;8.45;3.58;;;0.20;99.90;;;;;;5063336;28;20029;-67
2021/01/15 00:38:50;;;;;;;9.85;3.38;;;0.30;99.90;;;;;;5069187;28;20046;-67
2021/01/15 00:41:16;;;;;;;7.40;3.42;;;0.20;99.90;;;;;;5066925;28;20041;-67
2021/01/15 00:43:42;;;;;;;9.38;3.72;;;0.20;99.90;;;;;;5069616;28;20094;-67
2021/01/15 00:46:13;;;;;;;8.10;3.45;;;0.30;99.90;;;;;;5065026;28;20075;-67
2021/01/15 00:48:39;;;;;;;6.55;3.00;;;0.20;99.90;;;;;;5070197;28;20043;-67
2021/01/15 00:51:09;;;;;;;8.07;3.38;;;0.30;99.90;;;;;;5067184;28;20071;-67
2021/01/15 00:53:35;;;;;;;7.65;3.47;;;0.30;99.90;;;;;;5064670;28;20516;-67
2021/01/15 00:56:00;;;;;;;7.65;3.70;;;0.30;99.90;;;;;;5069134;28;20036;-67
2021/01/15 00:58:26;;;;;;;8.35;3.40;;;0.30;99.90;;;;;;5068134;28;20032;-67
2021/01/15 01:00:52;;;;;;;8.13;3.20;;;0.30;99.90;;;;;;5069831;28;20442;-65
2021/01/15 01:03:17;;;;;;;8.18;3.25;;;0.30;99.90;;;;;;5068259;28;20044;-71
2021/01/15 01:05:43;;;;;;;7.25;3.28;;;0.30;99.90;;;;;;5065045;28;20065;-67
2021/01/15 01:08:08;;;;;;;8.70;3.33;;;0.20;99.90;;;;;;5069637;28;20059;-66
2021/01/15 01:10:34;;;;;;;5.75;2.90;;;0.20;99.90;;;;;;5070495;28;20051;-67
2021/01/15 01:12:59;;;;;;;6.35;3.17;;;0.20;99.90;;;;;;5069094;28;20025;-67
2021/01/15 01:15:25;;;;;;;7.45;3.30;;;0.20;99.90;;;;;;5070033;28;20358;-66
2021/01/15 01:17:52;;;;;;;7.95;3.65;;;0.10;99.90;;;;;;5070585;28;20032;-67
2021/01/15 01:20:18;;;;;;;6.82;2.60;;;0.10;99.90;;;;;;5070731;28;20062;-67
2021/01/15 01:22:53;;;;;;;6.95;3.53;;;0.20;99.90;;;;;;5070016;28;20040;-67
2021/01/15 01:25:18;;;;;;;8.18;3.60;;;0.30;99.90;;;;;;5067461;28;20028;-66
2021/01/15 01:27:45;;;;;;;8.18;3.20;;;0.20;99.90;;;;;;5070508;28;20594;-67
2021/01/15 01:30:12;;;;;;;6.22;2.97;;;0.30;99.90;;;;;;5071229;28;20037;-67
2021/01/15 01:32:37;;;;;;;11.93;3.78;;;0.20;99.90;;;;;;5072655;28;20031;-66
2021/01/15 01:35:05;;;;;;;9.73;4.38;;;0.20;99.90;;;;;;5075826;28;20048;-67
2021/01/15 01:37:30;;;;;;;8.27;3.45;;;0.10;99.90;;;;;;5075291;28;20045;-67
2021/01/15 01:39:56;;;;;;;8.25;3.80;;;0.10;99.90;;;;;;5070253;28;20687;-67
2021/01/15 01:42:21;;;;;;;8.73;3.45;;;0.10;99.90;;;;;;5070413;28;20074;-66
2021/01/15 01:44:47;;;;;;;7.18;3.28;;;0.10;99.90;;;;;;5069604;28;20039;-66
2021/01/15 01:47:12;;;;;;;6.03;3.17;;;0.10;99.90;;;;;;5070378;28;20039;-67
2021/01/15 01:49:38;;;;;;;8.32;3.45;;;0.10;99.90;;;;;;5069688;28;20074;-65
2021/01/15 01:52:04;;;;;;;9.82;3.80;;;0.20;99.90;;;;;;5068619;28;20036;-67
2021/01/15 01:54:34;;;;;;;8.93;3.60;;;0.20;99.90;;;;;;5068329;28;20111;-67
2021/01/15 01:57:00;;;;;;;9.25;4.07;;;0.30;99.90;;;;;;5068244;28;20032;-68
2021/01/15 01:59:25;;;;;;;8.73;3.95;;;0.40;99.90;;;;;;5069973;28;20033;-68
2021/01/15 02:01:51;;;;;;;10.40;3.50;;;0.50;99.90;;;;;;5069130;28;20021;-66
2021/01/15 02:04:16;;;;;;;7.35;3.70;;;0.60;99.90;;;;;;5069714;28;20085;-67
2021/01/15 02:06:42;;;;;;;6.35;2.97;;;0.60;99.90;;;;;;5067814;28;20397;-67
2021/01/15 02:09:08;;;;;;;8.52;3.95;;;0.80;99.90;;;;;;5068113;28;20033;-66
2021/01/15 02:11:36;;;;;;;6.80;3.42;;;0.80;99.90;;;;;;5069200;28;20037;-67
2021/01/15 02:14:19;;;;;;;8.75;3.45;;;0.80;99.90;;;;;;5067907;28;20044;-66
2021/01/15 02:16:44;;;;;;;6.20;3.22;;;0.80;99.90;;;;;;5067742;28;20037;-66
2021/01/15 02:19:22;;;;;;;8.73;3.72;;;0.90;99.90;;;;;;5069516;28;20036;-67
2021/01/15 02:22:14;;;;;;;6.30;3.35;;;0.90;99.90;;;;;;5067134;28;20052;-68
2021/01/15 02:24:59;;;;;;;6.60;3.45;;;1.00;99.90;;;;;;5065817;28;20028;-67
2021/01/15 02:27:57;;;;;;;7.38;3.85;;;1.00;99.90;;;;;;5067812;28;20097;-67
2021/01/15 02:30:47;;;;;;;8.60;3.40;;;1.10;99.90;;;;;;5065445;28;20036;-66
2021/01/15 02:33:48;;;;;;;7.22;3.60;;;1.10;99.90;;;;;;5065589;28;20058;-67
2021/01/15 02:36:14;;;;;;;6.40;3.20;;;1.20;99.90;;;;;;5067274;28;20040;-67
2021/01/15 02:38:45;;;;;;;8.57;3.80;;;1.20;99.90;;;;;;5069489;28;20041;-67
2021/01/15 02:41:18;;;;;;;8.05;3.88;;;1.20;99.90;;;;;;5065300;28;20101;-67
2021/01/15 02:43:48;;;;;;;5.53;3.15;;;1.30;99.90;;;;;;5066404;28;20846;-67
2021/01/15 02:46:16;;;;;;;7.97;3.22;;;1.30;99.90;;;;;;5068713;28;20124;-66
2021/01/15 02:48:47;;;;;;;9.52;3.38;;;1.40;99.90;;;;;;5073442;28;20447;-67
2021/01/15 02:51:13;;;;;;;9.63;3.53;;;1.40;99.90;;;;;;5074437;28;20033;-67
2021/01/15 02:53:39;;;;;;;8.88;4.05;;;1.40;99.90;;;;;;5071022;28;20181;-68
2021/01/15 02:56:05;;;;;;;8.95;4.35;;;1.40;99.90;;;;;;5068633;28;20095;-67
2021/01/15 02:58:30;;;;;;;8.30;4.03;;;1.40;99.90;;;;;;5068868;28;20103;-66
2021/01/15 03:00:57;;;;;;;4.95;2.63;;;1.50;99.90;;;;;;5068251;28;20078;-67
2021/01/15 03:03:34;;;;;;;7.72;4.00;;;1.50;99.90;;;;;;5066928;28;20036;-66
2021/01/15 03:06:10;;;;;;;6.18;2.67;;;1.50;99.90;;;;;;5068482;28;20036;-66
2021/01/15 03:08:37;;;;;;;6.25;2.83;;;1.50;99.90;;;;;;5063245;28;20044;-67
2021/01/15 03:11:04;;;;;;;8.60;3.28;;;1.50;99.90;;;;;;5068359;28;20034;-66
2021/01/15 03:13:30;;;;;;;7.47;2.83;;;1.50;99.90;;;;;;5068249;28;20098;-67
2021/01/15 03:16:03;;;;;;;7.40;3.00;;;1.50;99.90;;;;;;5068351;28;20036;-67
2021/01/15 03:18:33;;;;;;;9.57;2.80;;;1.50;99.90;;;;;;5068479;28;20033;-66
2021/01/15 03:21:00;;;;;;;6.80;3.15;;;1.50;99.90;;;;;;5066383;28;20041;-66
2021/01/15 03:23:26;;;;;;;5.78;2.42;;;1.60;99.90;;;;;;5066765;28;20033;-67
2021/01/15 03:25:51;;;;;;;5.43;2.80;;;1.60;99.90;;;;;;5065348;28;20060;-67
2021/01/15 03:28:17;;;;;;;4.75;2.42;;;1.60;99.90;;;;;;5066760;28;20516;-67
2021/01/15 03:30:42;;;;;;;6.30;2.83;;;1.60;99.90;;;;;;5068827;28;20413;-67
2021/01/15 03:33:08;;;;;;;7.63;2.75;;;1.70;99.90;;;;;;5068282;28;20037;-67
2021/01/15 03:35:33;;;;;;;5.97;2.97;;;1.70;99.90;;;;;;5067939;28;20280;-66
2021/01/15 03:38:08;;;;;;;6.70;2.60;;;1.70;99.90;;;;;;5068231;28;20045;-67
2021/01/15 03:40:39;;;;;;;6.88;3.08;;;1.70;99.90;;;;;;5068041;28;20028;-66
2021/01/15 03:43:21;;;;;;;7.72;2.30;;;1.60;99.90;;;;;;5068319;28;20574;-67
2021/01/15 03:45:47;;;;;;;7.03;2.90;;;1.70;99.90;;;;;;5065833;28;20128;-66
2021/01/15 03:48:14;;;;;;;6.03;3.00;;;1.70;99.90;;;;;;5068531;28;20029;-67
2021/01/15 03:50:40;;;;;;;6.90;2.50;;;1.70;99.90;;;;;;5067664;28;20040;-67
2021/01/15 03:53:06;;;;;;;5.65;2.42;;;1.70;99.90;;;;;;5067005;28;20381;-66
2021/01/15 03:55:32;;;;;;;6.25;3.00;;;1.70;99.90;;;;;;5067646;28;20036;-67
2021/01/15 03:57:58;;;;;;;4.72;2.60;;;1.70;99.90;;;;;;5067453;28;20036;-67
2021/01/15 04:00:24;;;;;;;7.80;3.22;;;1.70;99.90;;;;;;5070713;28;20036;-67
2021/01/15 04:02:49;;;;;;;5.53;2.60;;;1.80;99.90;;;;;;5072737;28;20051;-65
2021/01/15 04:05:15;;;;;;;5.55;2.42;;;1.70;99.90;;;;;;5071236;28;20669;-66
2021/01/15 04:07:41;;;;;;;7.72;2.85;;;1.70;99.90;;;;;;5067997;28;20089;-67
2021/01/15 04:10:12;;;;;;;7.13;3.08;;;1.70;99.90;;;;;;5066708;28;20518;-67
2021/01/15 04:12:38;;;;;;;;;;;1.70;99.90;;;;;;5070421;28;20024;-66
2021/01/15 04:15:06;;;;;;;5.88;2.67;;;1.70;99.90;;;;;;5070741;28;19920;-67
2021/01/15 04:17:32;;;;;;;6.25;3.15;;;1.80;99.90;;;;;;5074048;28;20032;-67
2021/01/15 04:19:57;;;;;;;5.95;2.55;;;1.80;99.90;;;;;;5070513;28;20489;-66
2021/01/15 04:22:23;;;;;;;7.25;3.10;;;1.80;99.90;;;;;;5071791;28;20052;-67
2021/01/15 04:24:48;;;;;;;6.53;2.72;;;1.80;99.90;;;;;;5071146;28;20130;-67
2021/01/15 04:27:14;;;;;;;5.55;2.67;;;1.80;99.90;;;;;;5071658;28;20680;-65
2021/01/15 04:29:39;;;;;;;6.95;2.67;;;1.80;99.90;;;;;;5066952;28;20083;-67
2021/01/15 04:32:05;;;;;;;5.50;2.40;;;1.90;99.90;;;;;;5071790;28;20050;-67
2021/01/15 04:34:31;;;;;;;6.07;3.05;;;1.90;99.90;;;;;;5066895;28;20708;-72
2021/01/15 04:36:58;;;;;;;6.75;3.38;;;1.90;99.90;;;;;;5070059;28;20435;-67
2021/01/15 04:39:23;;;;;;;7.38;2.97;;;1.90;99.90;;;;;;5071436;28;20094;-67
2021/01/15 04:41:51;;;;;;;8.15;2.97;;;1.90;99.90;;;;;;5071128;28;20029;-65
2021/01/15 04:44:17;;;;;;;5.95;2.40;;;1.90;99.90;;;;;;5071320;28;20051;-66
2021/01/15 04:46:45;;;;;;;5.13;2.75;;;1.90;99.90;;;;;;5070853;28;20036;-66
2021/01/15 04:49:12;;;;;;;5.78;2.67;;;1.90;99.90;;;;;;5069616;28;20048;-67
2021/01/15 04:51:39;;;;;;;8.80;3.03;;;1.90;99.90;;;;;;5069262;28;20689;-66
2021/01/15 04:54:10;;;;;;;7.05;2.78;;;1.90;99.90;;;;;;5071123;28;20024;-66
2021/01/15 04:56:46;;;;;;;6.60;2.55;;;1.90;99.90;;;;;;5069518;28;20033;-70
2021/01/15 04:59:13;;;;;;;4.30;2.50;;;1.90;99.90;;;;;;5069699;28;20040;-67
2021/01/15 05:01:40;;;;;;;6.60;2.35;;;1.90;99.90;;;;;;5070614;28;20037;-67
2021/01/15 05:04:07;;;;;;;6.43;3.22;;;1.90;99.90;;;;;;5069376;28;20100;-66
2021/01/15 05:06:43;;;;;;;6.35;2.75;;;1.90;99.90;;;;;;5071190;28;20032;-67
2021/01/15 05:09:12;;;;;;;8.90;3.10;;;1.90;99.90;;;;;;5067774;28;20033;-67
2021/01/15 05:11:38;;;;;;;7.57;2.88;;;1.90;99.90;;;;;;5070951;28;20044;-67
2021/01/15 05:14:08;;;;;;;6.80;3.08;;;1.90;99.90;;;;;;5072354;28;20054;-67
2021/01/15 05:16:37;;;;;;;7.78;3.03;;;1.90;99.90;;;;;;5073217;28;20555;-67
2021/01/15 05:19:03;;;;;;;6.53;2.63;;;1.90;99.90;;;;;;5069021;28;20553;-66
2021/01/15 05:21:29;;;;;;;5.78;2.90;;;2.00;99.90;;;;;;5069452;28;20174;-65
2021/01/15 05:23:55;;;;;;;5.70;3.08;;;2.00;99.90;;;;;;5070039;28;20029;-65
2021/01/15 05:26:22;;;;;;;5.82;3.05;;;2.00;99.90;;;;;;5070880;28;20493;-68
2021/01/15 05:28:49;;;;;;;8.07;2.80;;;2.00;99.90;;;;;;5070617;28;20036;-67
2021/01/15 05:31:15;;;;;;;7.70;3.05;;;2.00;99.90;;;;;;5068773;28;20032;-67
2021/01/15 05:33:40;;;;;;;8.07;3.03;;;2.00;99.90;;;;;;5070442;28;20043;-67
2021/01/15 05:36:06;;;;;;;8.73;2.60;;;2.00;99.90;;;;;;5068356;28;20044;-67
2021/01/15 05:38:32;;;;;;;6.63;3.35;;;2.00;99.90;;;;;;5068689;28;20033;-67
2021/01/15 05:40:57;;;;;;;5.75;3.08;;;2.00;99.90;;;;;;5068667;28;20036;-67
2021/01/15 05:43:23;;;;;;;6.90;2.92;;;2.00;99.90;;;;;;5069906;28;20029;-66
2021/01/15 05:46:22;;;;;;;5.72;2.92;;;2.10;99.90;;;;;;5070162;28;20123;-67
2021/01/15 05:48:53;;;;;;;8.57;3.65;;;2.10;99.90;;;;;;5068564;28;20036;-66
2021/01/15 05:51:22;;;;;;;;;;;2.00;99.90;;;;;;5069205;28;20037;-67
2021/01/15 05:53:47;;;;;;;10.02;3.05;;;2.20;99.90;;;;;;5069258;28;20290;-66
2021/01/15 05:56:13;;;;;;;6.38;2.83;;;2.10;99.90;;;;;;5068702;28;20037;-67
2021/01/15 05:58:59;;;;;;;8.27;3.33;;;2.20;99.90;;;;;;5069548;28;20029;-67
2021/01/15 06:01:36;;;;;;;8.15;3.60;;;2.20;99.90;;;;;;5069969;28;20115;-67
2021/01/15 06:04:02;;;;;;;6.78;3.17;;;2.20;99.90;;;;;;5066187;28;20036;-67
2021/01/15 06:06:31;;;;;;;9.48;3.97;;;2.20;99.90;;;;;;5068180;28;20032;-67
2021/01/15 06:08:59;;;;;;;6.55;3.50;;;2.20;99.90;;;;;;5065433;28;20119;-67
2021/01/15 06:11:25;;;;;;;5.22;2.83;;;2.20;99.90;;;;;;5069508;28;20047;-67
2021/01/15 06:13:51;;;;;;;7.07;3.22;;;2.20;99.90;;;;;;5079774;22;20037;-60
2021/01/15 06:16:19;;;;;;;6.05;3.08;;;2.30;99.90;;;;;;5028567;28;20091;-59
2021/01/15 06:18:59;;;;;;;8.05;3.30;;;2.20;99.90;;;;;;5048438;28;20071;-60
2021/01/15 06:21:32;;;;;;;7.40;3.45;;;2.20;99.90;;;;;;5043817;28;20371;-60
2021/01/15 06:24:06;;;;;;;6.50;3.40;;;2.20;99.90;;;;;;5041292;28;20084;-59
2021/01/15 06:26:39;;;;;;;6.30;2.95;;;2.20;99.90;;;;;;5041576;28;20505;-60
2021/01/15 06:29:07;;;;;;;8.50;3.40;;;2.20;99.90;;;;;;5036095;28;20048;-60
2021/01/15 06:31:48;;;;;;;7.30;3.28;;;2.20;99.90;;;;;;5040198;28;20033;-63
2021/01/15 06:34:15;;;;;;;;;;;2.20;99.90;;;;;;5038781;28;20049;-62
2021/01/15 06:36:51;;;;;;;7.20;3.80;;;2.20;99.90;;;;;;5038996;28;19923;-60
2021/01/15 06:39:17;;;;;;;9.02;3.90;;;2.20;99.90;;;;;;5037863;28;20037;-60
2021/01/15 06:41:43;;;;;;;5.75;2.92;;;2.20;99.90;;;;;;5038539;28;20492;-60
2021/01/15 06:44:10;;;;;;;8.30;2.88;;;2.30;99.90;;;;;;5037862;28;20044;-60
2021/01/15 06:46:42;;;;;;;5.03;2.75;;;2.30;99.90;;;;;;5039253;28;20041;-60
2021/01/15 06:49:14;;;;;;;6.68;2.85;;;2.30;99.90;;;;;;5037923;28;20041;-62
2021/01/15 06:51:53;;;;;;;9.43;2.85;;;2.30;99.90;;;;;;5038701;28;20029;-60
2021/01/15 06:54:27;;;;;;;5.72;2.63;;;2.30;99.90;;;;;;5039441;28;20039;-61
2021/01/15 06:57:09;;;;;;;8.30;3.58;;;2.40;99.90;;;;;;5043083;28;20061;-60
2021/01/15 06:59:37;;;;;;;9.00;3.95;;;2.40;99.90;;;;;;5040890;28;20405;-62
2021/01/15 07:02:41;;;;;;;9.23;3.90;;;2.40;99.90;;;;;;5037825;28;20033;-60
2021/01/15 07:05:12;;;;;;;8.65;3.92;;;2.40;99.90;;;;;;5040733;28;20398;-60
2021/01/15 07:07:41;;;;;;;14.60;5.78;;;2.40;99.90;;;;;;5038275;28;20489;-60
2021/01/15 07:10:07;;;;;;;13.43;5.65;;;2.40;99.90;;;;;;5038353;28;20074;-60
2021/01/15 07:12:41;;;;;;;10.25;4.78;;;2.40;99.90;;;;;;5037606;28;20496;-60
2021/01/15 07:15:21;;;;;;;16.20;7.13;;;2.30;99.90;;;;;;5038324;28;20356;-60
2021/01/15 07:17:47;;;;;;;17.83;7.75;;;2.40;99.90;;;;;;5038817;28;20040;-60
2021/01/15 07:20:18;;;;;;;11.20;5.25;;;2.40;99.90;;;;;;5036278;28;20053;-59
2021/01/15 07:22:51;;;;;;;9.00;4.43;;;2.40;99.90;;;;;;5036882;28;20056;-61
2021/01/15 07:25:19;;;;;;;12.50;3.60;;;2.40;99.90;;;;;;5038983;28;20055;-61
2021/01/15 07:27:45;;;;;;;8.35;3.78;;;2.50;99.90;;;;;;5037444;28;20342;-60
2021/01/15 07:30:12;;;;;;;9.45;3.63;;;2.40;99.90;;;;;;5038109;28;20072;-60
2021/01/15 07:32:39;;;;;;;21.52;3.75;;;2.30;99.90;;;;;;5038238;28;20038;-60
2021/01/15 07:35:06;;;;;;;7.25;3.53;;;2.30;99.90;;;;;;5037241;28;20505;-62
2021/01/15 07:37:32;;;;;;;7.07;3.60;;;2.30;99.90;;;;;;5039012;28;20029;-59
2021/01/15 07:40:06;;;;;;;9.43;4.35;;;2.30;99.90;;;;;;5036566;28;20484;-60
2021/01/15 07:42:53;;;;;;;9.35;3.17;;;2.30;99.90;;;;;;5039947;28;20044;-61
2021/01/15 07:45:24;;;;;;;6.78;3.75;;;2.20;99.90;;;;;;5046400;28;20029;-62
2021/01/15 07:48:05;;;;;;;7.93;3.88;;;2.20;99.90;;;;;;5051795;28;20067;-61
2021/01/15 07:50:31;;;;;;;8.77;4.03;;;2.20;99.90;;;;;;5049045;28;20051;-59
2021/01/15 07:53:10;;;;;;;10.32;4.15;;;2.10;99.90;;;;;;5051316;28;20037;-60
2021/01/15 07:55:43;;;;;;;11.80;4.15;;;2.10;99.90;;;;;;5039910;28;20037;-61
2021/01/15 07:58:08;;;;;;;10.43;4.38;;;2.10;99.90;;;;;;5051259;28;20039;-61
2021/01/15 08:00:34;;;;;;;9.90;5.03;;;2.10;99.90;;;;;;5045721;28;20041;-60
2021/01/15 08:03:01;;;;;;;9.85;4.88;;;2.10;99.90;;;;;;5041150;28;20123;-60
2021/01/15 08:05:26;;;;;;;11.60;4.25;;;2.10;99.90;;;;;;5044118;28;20029;-60
2021/01/15 08:08:04;;;;;;;7.75;4.25;;;2.10;99.90;;;;;;5051228;28;20029;-60
2021/01/15 08:10:30;;;;;;;8.75;4.03;;;2.20;99.90;;;;;;5050714;28;20037;-60
2021/01/15 08:12:55;;;;;;;7.57;4.03;;;2.20;99.90;;;;;;5051370;28;20527;-60
2021/01/15 08:15:32;;;;;;;7.68;3.80;;;2.30;99.90;;;;;;5050555;28;20033;-60
2021/01/15 08:18:02;;;;;;;8.65;4.32;;;2.40;99.90;;;;;;5049516;28;20404;-60
2021/01/15 08:20:27;;;;;;;5.68;3.08;;;2.40;99.90;;;;;;5049004;28;20053;-60
2021/01/15 08:22:53;;;;;;;8.35;3.80;;;2.40;99.90;;;;;;5051209;28;20123;-60
2021/01/15 08:25:27;;;;;;;9.70;4.85;;;2.30;99.90;;;;;;5050212;28;20063;-61
2021/01/15 08:27:53;;;;;;;7.75;3.78;;;2.30;99.90;;;;;;5051239;28;20043;-60
2021/01/15 08:30:19;;;;;;;7.40;3.80;;;2.30;99.90;;;;;;5048843;28;20029;-59
2021/01/15 08:32:44;;;;;;;6.63;3.45;;;2.30;99.90;;;;;;5049646;28;20033;-60
2021/01/15 08:35:31;;;;;;;9.98;4.40;;;2.40;99.90;;;;;;5045824;28;20390;-59
2021/01/15 08:37:58;;;;;;;8.90;3.72;;;2.40;99.90;;;;;;5046621;28;20041;-60
2021/01/15 08:40:29;;;;;;;8.63;3.92;;;2.40;99.90;;;;;;5042717;28;20144;-59
2021/01/15 08:42:56;;;;;;;8.27;3.72;;;2.40;99.90;;;;;;5044842;28;20044;-61
2021/01/15 08:45:28;;;;;;;10.07;4.10;;;2.40;99.90;;;;;;5047315;28;20102;-60
2021/01/15 08:47:56;;;;;;;6.95;3.70;;;2.40;99.90;;;;;;5044791;28;20028;-64
2021/01/15 08:50:22;;;;;;;13.20;4.40;;;2.40;99.90;;;;;;5049289;28;20058;-61
2021/01/15 08:52:49;;;;;;;10.38;4.20;;;2.40;99.90;;;;;;5044385;28;20033;-60
2021/01/15 08:55:16;;;;;;;10.02;4.35;;;2.40;99.90;;;;;;5046374;28;20044;-60
2021/01/15 08:57:42;;;;;;;9.75;4.30;;;2.40;99.90;;;;;;5043272;28;20508;-62
2021/01/15 09:00:12;;;;;;;11.38;3.50;;;2.40;99.90;;;;;;5047250;28;20076;-62
2021/01/15 09:02:42;;;;;;;9.45;4.05;;;2.50;99.90;;;;;;5049426;28;20032;-62
2021/01/15 09:05:18;;;;;;;10.93;3.90;;;2.60;99.90;;;;;;5049867;28;20171;-60
2021/01/15 09:07:46;;;;;;;9.10;3.67;;;2.50;99.90;;;;;;5046963;28;20063;-60
2021/01/15 09:10:15;;;;;;;10.85;4.60;;;2.50;99.90;;;;;;5049607;28;20082;-61
2021/01/15 09:12:43;;;;;;;12.25;4.90;;;2.50;99.90;;;;;;5049437;28;20025;-62
2021/01/15 09:15:25;;;;;;;11.90;4.95;;;2.50;99.90;;;;;;5049861;28;20036;-60
2021/01/15 09:17:51;;;;;;;9.13;4.15;;;2.50;99.90;;;;;;5046956;28;20021;-59
2021/01/15 09:20:18;;;;;;;11.02;4.60;;;2.40;99.90;;;;;;5040649;28;20046;-62
2021/01/15 09:22:44;;;;;;;12.88;4.85;;;2.40;99.90;;;;;;5040741;28;20405;-61
2021/01/15 09:25:13;;;;;;;11.38;5.00;;;2.50;99.90;;;;;;5036529;28;20040;-61
2021/01/15 09:27:40;;;;;;;15.70;5.00;;;2.50;99.90;;;;;;5038951;28;20551;-58
2021/01/15 09:30:06;;;;;;;11.45;4.47;;;2.50;99.90;;;;;;5037205;28;20041;-60
2021/01/15 09:32:31;;;;;;;10.57;4.68;;;2.50;99.90;;;;;;5038787;28;20041;-60
2021/01/15 09:34:57;;;;;;;12.18;4.53;;;2.50;99.90;;;;;;5042052;28;20029;-61
2021/01/15 09:37:22;;;;;;;10.88;4.32;;;2.50;99.90;;;;;;5039156;28;20021;-60
2021/01/15 09:39:48;;;;;;;9.95;4.65;;;2.50;99.90;;;;;;5040924;28;20067;-60
2021/01/15 09:42:14;;;;;;;10.57;4.55;;;2.50;99.90;;;;;;5039499;28;20036;-60
2021/01/15 09:44:40;;;;;;;12.95;5.43;;;2.50;99.90;;;;;;5040956;28;20075;-62
2021/01/15 09:47:06;;;;;;;10.63;5.15;;;2.60;99.90;;;;;;5036037;28;20036;-62
2021/01/15 09:49:32;;;;;;;19.70;5.50;;;2.50;99.90;;;;;;5039018;28;20063;-62
2021/01/15 09:51:58;;;;;;;15.27;5.40;;;2.60;99.90;;;;;;5037385;28;20061;-60
2021/01/15 09:54:23;;;;;;;11.95;4.55;;;2.60;99.90;;;;;;5037935;28;20056;-60
2021/01/15 09:56:49;;;;;;;15.95;5.38;;;2.60;99.90;;;;;;5036590;28;20036;-60
2021/01/15 09:59:16;;;;;;;12.95;4.85;;;2.60;99.90;;;;;;5038408;28;20038;-63
2021/01/15 10:01:43;;;;;;;10.32;4.57;;;2.60;99.90;;;;;;5039652;28;20538;-60
2021/01/15 10:04:08;;;;;;;10.18;4.70;;;2.60;99.90;;;;;;5035561;28;20040;-60
2021/01/15 10:06:38;;;;;;;12.30;5.78;;;2.60;99.90;;;;;;5035110;28;20489;-59
2021/01/15 10:09:04;;;;;;;13.93;5.30;;;2.60;99.90;;;;;;5040765;28;20560;-61
2021/01/15 10:11:33;;;;;;;14.10;5.43;;;2.60;99.90;;;;;;5039847;28;20114;-60
2021/01/15 10:14:01;;;;;;;11.73;4.70;;;2.60;99.90;;;;;;5045990;28;20037;-60
2021/01/15 10:16:27;;;;;;;14.02;5.20;;;2.70;99.90;;;;;;5042329;28;20029;-60
2021/01/15 10:18:54;;;;;;;11.20;5.38;;;2.70;99.90;;;;;;5043127;28;20029;-60
2021/01/15 10:21:28;;;;;;;13.23;5.53;;;2.70;99.90;;;;;;5045204;28;20087;-60
2021/01/15 10:23:55;;;;;;;10.32;5.45;;;2.70;99.90;;;;;;5047597;28;20032;-60
2021/01/15 10:26:25;;;;;;;14.13;5.05;;;2.70;99.90;;;;;;5040599;28;20397;-60
2021/01/15 10:28:58;;;;;;;12.77;5.80;;;2.70;99.90;;;;;;5040338;28;20048;-60
2021/01/15 10:31:53;;;;;;;14.18;5.72;;;2.70;99.90;;;;;;5038518;28;20091;-59
2021/01/15 10:34:19;;;;;;;13.30;4.65;;;2.80;99.90;;;;;;5042311;28;20037;-60
2021/01/15 10:36:46;;;;;;;15.70;5.28;;;2.80;99.90;;;;;;5044456;28;20117;-61
2021/01/15 10:39:12;;;;;;;12.55;5.43;;;2.80;99.90;;;;;;5039619;28;20033;-60
2021/01/15 10:41:40;;;;;;;10.88;5.47;;;2.80;99.90;;;;;;5039354;28;20596;-61
2021/01/15 10:44:08;;;;;;;10.60;4.60;;;2.80;99.90;;;;;;5048028;28;20556;-60
2021/01/15 10:46:39;;;;;;;15.23;5.75;;;2.80;99.90;;;;;;5048765;28;20036;-61
2021/01/15 10:49:09;;;;;;;12.10;4.63;;;2.80;99.90;;;;;;5057046;28;20036;-60
2021/01/15 10:51:35;;;;;;;13.02;5.45;;;2.80;99.90;;;;;;5048386;28;20029;-63
2021/01/15 10:54:00;;;;;;;15.18;5.40;;;2.80;99.90;;;;;;5048187;28;20037;-60
2021/01/15 10:56:37;;;;;;;13.52;5.10;;;2.80;99.90;;;;;;5041085;28;20071;-60
2021/01/15 10:59:03;;;;;;;10.00;4.65;;;2.80;99.90;;;;;;5038008;28;20029;-60
2021/01/15 11:01:36;;;;;;;9.68;4.55;;;2.80;99.90;;;;;;5038209;28;20497;-59
2021/01/15 11:04:02;;;;;;;12.32;4.50;;;2.80;99.90;;;;;;5037854;28;20086;-60
2021/01/15 11:06:28;;;;;;;10.63;4.72;;;2.80;99.90;;;;;;5033386;28;20387;-60
2021/01/15 11:08:54;;;;;;;13.70;5.18;;;2.80;99.90;;;;;;5032276;28;20060;-59
2021/01/15 11:11:19;;;;;;;11.43;4.78;;;2.80;99.90;;;;;;5034202;28;20068;-60
2021/01/15 11:13:45;;;;;;;13.95;5.45;;;2.80;99.90;;;;;;5035364;28;20052;-59
2021/01/15 11:16:12;;;;;;;12.27;5.68;;;2.80;99.90;;;;;;5043550;28;20033;-61
2021/01/15 11:18:38;;;;;;;13.75;5.53;;;2.90;99.90;;;;;;5038183;28;20397;-59
2021/01/15 11:21:04;;;;;;;11.23;4.68;;;2.80;99.90;;;;;;5035125;28;20239;-60
2021/01/15 11:23:30;;;;;;;13.35;4.90;;;2.90;99.90;;;;;;5036825;28;20538;-60
2021/01/15 11:25:55;;;;;;;15.82;5.10;;;2.90;99.90;;;;;;5042825;28;20123;-63
2021/01/15 11:28:21;;;;;;;15.20;5.35;;;2.90;99.90;;;;;;5047310;28;20025;-60
2021/01/15 11:30:46;;;;;;;14.90;5.07;;;2.90;99.90;;;;;;5046305;28;20493;-60
2021/01/15 11:33:12;;;;;;;12.38;6.10;;;2.90;99.90;;;;;;5047016;28;20041;-60
2021/01/15 11:35:38;;;;;;;11.15;4.97;;;3.00;99.90;;;;;;5047814;28;20033;-60
2021/01/15 11:38:03;;;;;;;13.38;4.55;;;3.00;99.90;;;;;;5048044;28;20432;-59
2021/01/15 11:40:29;;;;;;;13.18;5.32;;;3.00;99.90;;;;;;5048163;28;20037;-62
2021/01/15 11:43:03;;;;;;;10.73;4.75;;;3.00;99.90;;;;;;5048174;28;20035;-63
2021/01/15 11:45:29;;;;;;;12.93;5.30;;;3.10;99.90;;;;;;5046501;28;20116;-60
2021/01/15 11:47:55;;;;;;;9.55;4.97;;;3.10;99.90;;;;;;5047690;28;20120;-60
2021/01/15 11:50:22;;;;;;;12.35;5.03;;;3.10;99.90;;;;;;5047648;28;20056;-60
2021/01/15 11:52:52;;;;;;;13.05;5.15;;;3.20;99.90;;;;;;5046214;28;20036;-60
2021/01/15 11:55:17;;;;;;;11.25;4.88;;;3.20;99.90;;;;;;5046522;28;20029;-63
2021/01/15 11:57:43;;;;;;;9.57;4.35;;;3.30;99.90;;;;;;5047597;28;20112;-60
2021/01/15 12:00:09;;;;;;;9.70;3.90;;;3.30;99.90;;;;;;5047769;28;20485;-60
2021/01/15 12:02:35;;;;;;;10.23;4.68;;;3.30;99.90;;;;;;5047329;28;20035;-60
2021/01/15 12:05:00;;;;;;;12.52;6.22;;;3.30;99.90;;;;;;5047605;28;20028;-61
2021/01/15 12:07:29;;;;;;;10.45;5.30;;;3.40;99.90;;;;;;5045648;28;20033;-59
2021/01/15 12:09:54;;;;;;;9.90;4.78;;;3.40;99.90;;;;;;5037266;28;20117;-60
2021/01/15 12:12:20;;;;;;;9.95;4.63;;;3.30;99.90;;;;;;5038156;28;20136;-60
2021/01/15 12:14:45;;;;;;;12.00;5.32;;;3.30;99.90;;;;;;5066229;22;20040;-67
2021/01/15 12:17:11;;;;;;;9.77;4.57;;;3.30;99.90;;;;;;5075652;28;20039;-67
2021/01/15 12:19:36;;;;;;;7.70;3.80;;;3.30;99.90;;;;;;5061437;28;20509;-67
2021/01/15 12:22:02;;;;;;;10.00;4.15;;;3.30;99.90;;;;;;5059781;28;20029;-67
2021/01/15 12:24:27;;;;;;;10.88;5.18;;;3.30;99.90;;;;;;5056976;28;20090;-66
2021/01/15 12:26:58;;;;;;;12.20;4.93;;;3.40;99.90;;;;;;5058103;28;20094;-67
2021/01/15 12:29:24;;;;;;;12.48;4.57;;;3.30;99.90;;;;;;5056103;28;20068;-67
2021/01/15 12:31:53;;;;;;;12.85;4.65;;;3.30;99.90;;;;;;5057863;28;20060;-66
2021/01/15 12:34:19;;;;;;;10.63;4.90;;;3.40;99.90;;;;;;5060622;28;20526;-67
2021/01/15 12:36:45;;;;;;;11.02;4.35;;;3.40;99.90;;;;;;5060318;28;20041;-67
2021/01/15 12:39:10;;;;;;;10.38;4.45;;;3.30;99.90;;;;;;5062775;28;20036;-66
2021/01/15 12:41:36;;;;;;;11.15;5.28;;;3.40;99.90;;;;;;5059747;28;20398;-69
2021/01/15 12:44:01;;;;;;;9.35;4.47;;;3.40;99.90;;;;;;5061274;28;20081;-67
2021/01/15 12:46:27;;;;;;;8.77;4.93;;;3.50;99.90;;;;;;5060645;28;20485;-68
2021/01/15 12:48:53;;;;;;;12.27;5.75;;;3.50;99.90;;;;;;5059530;28;20037;-66
2021/01/15 12:51:18;;;;;;;13.10;5.30;;;3.50;99.90;;;;;;5061568;28;20048;-67
2021/01/15 12:53:44;;;;;;;11.57;5.55;;;3.50;99.90;;;;;;5060739;28;20029;-67
2021/01/15 12:56:09;;;;;;;10.00;5.15;;;3.50;99.90;;;;;;5070939;28;20032;-67
2021/01/15 12:58:35;;;;;;;8.68;4.65;;;3.50;99.90;;;;;;5067885;28;20039;-67
2021/01/15 13:01:00;;;;;;;10.55;4.60;;;3.50;99.90;;;;;;5068603;28;20036;-68
2021/01/15 13:03:26;;;;;;;10.10;5.13;;;3.50;99.90;;;;;;5070738;28;20496;-67